Time;durP1;ratioP1;P1;durP2;ratioP2;P2;SDS_P1;SDS_P2;PMS_P1;PMS_P2;Temp;Humidity;BMP_temperature;BMP_pressure;BME280_temperature;BME280_humidity;BME280_pressure;Samples;Min_cycle;Max_cycle;Signal;HPM_P1;HPM_P2
2021/07/26 05:51:20;;;;;;;12.18;9.30;;;;;;;25.00;50.89;100257.05;1516566;85;25748;-69
2021/07/26 05:53:46;;;;;;;12.45;11.25;;;;;;;24.96;52.10;100263.49;1468526;88;21530;-72
2021/07/26 05:56:12;;;;;;;21.00;11.97;;;;;;;24.98;52.48;100267.33;1489144;87;22744;-72
2021/07/26 05:58:46;;;;;;;20.40;12.40;;;;;;;24.98;52.93;100260.55;1502622;87;22661;-71
2021/07/26 06:03:46;;;;;;;14.33;10.35;;;;;;;25.02;53.85;100281.99;1497287;87;21404;-68
2021/07/26 06:06:13;;;;;;;13.58;10.82;;;;;;;25.05;53.86;100276.08;1484572;87;21574;-70
2021/07/26 06:08:40;;;;;;;17.12;10.88;;;;;;;25.10;54.69;100270.75;1487471;87;21513;-69
2021/07/26 06:11:06;;;;;;;14.70;11.50;;;;;;;25.15;55.11;100275.47;1482255;87;21699;-68
2021/07/26 06:13:33;;;;;;;17.87;12.00;;;;;;;25.19;54.83;100274.70;1475706;88;21522;-69
2021/07/26 06:16:03;;;;;;;20.82;10.60;;;;;;;25.23;55.23;100272.86;1479056;88;21456;-70
2021/07/26 06:18:29;;;;;;;16.67;11.10;;;;;;;25.25;54.97;100268.84;1470267;88;21558;-72
2021/07/26 06:20:56;;;;;;;12.33;10.90;;;;;;;25.29;55.08;100266.45;1489328;88;21634;-72
2021/07/26 06:23:22;;;;;;;12.53;10.60;;;;;;;25.29;55.38;100263.73;1483035;87;21507;-69
2021/07/26 06:25:48;;;;;;;17.02;10.45;;;;;;;25.33;55.26;100273.02;1483222;88;21559;-69
2021/07/26 06:28:14;;;;;;;23.05;10.25;;;;;;;25.36;55.03;100267.11;1487719;87;22461;-72
2021/07/26 06:30:40;;;;;;;18.25;10.90;;;;;;;25.40;55.00;100258.75;1458913;88;21574;-69
2021/07/26 06:33:09;;;;;;;17.70;10.30;;;;;;;25.44;55.03;100256.66;1465565;88;21477;-69
2021/07/26 06:35:36;;;;;;;18.00;10.58;;;;;;;25.49;55.05;100253.21;1485817;88;21528;-72
2021/07/26 06:38:03;;;;;;;12.10;9.58;;;;;;;25.54;55.07;100257.32;1475011;88;21537;-70
2021/07/26 06:40:31;;;;;;;21.40;10.65;;;;;;;25.58;54.75;100261.73;1470372;87;21529;-69
2021/07/26 06:42:58;;;;;;;22.77;12.00;;;;;;;25.62;54.71;100248.77;1453638;88;22631;-69
2021/07/26 06:45:26;;;;;;;18.98;11.85;;;;;;;25.66;54.70;100249.07;1462475;89;21441;-71
2021/07/26 06:47:53;;;;;;;13.62;10.65;;;;;;;25.71;55.13;100252.39;1461883;89;22469;-71
2021/07/26 06:50:19;;;;;;;14.15;11.20;;;;;;;25.73;55.27;100248.36;1467114;89;22521;-74
2021/07/26 06:52:47;;;;;;;12.80;10.50;;;;;;;25.75;55.15;100239.96;1442038;89;21554;-71
2021/07/26 06:55:13;;;;;;;14.98;10.72;;;;;;;25.74;55.29;100242.40;1474959;89;21794;-71
2021/07/26 06:57:39;;;;;;;17.23;10.55;;;;;;;25.76;55.29;100241.63;1471236;89;21559;-70
2021/07/26 07:00:09;;;;;;;13.90;9.70;;;;;;;25.74;55.00;100249.17;1468436;89;21508;-71
2021/07/26 07:02:36;;;;;;;16.37;10.48;;;;;;;25.74;54.88;100247.83;1447603;89;22454;-69
2021/07/26 07:05:03;;;;;;;17.50;10.23;;;;;;;25.76;54.70;100248.40;1455158;89;21674;-74
2021/07/26 07:07:29;;;;;;;17.32;11.45;;;;;;;25.78;54.55;100250.30;1462991;89;21685;-69
2021/07/26 07:09:56;;;;;;;20.25;12.80;;;;;;;25.80;54.42;100244.09;1446660;89;21574;-74
2021/07/26 07:12:22;;;;;;;16.12;12.82;;;;;;;25.83;54.40;100249.05;1466644;89;21566;-69
2021/07/26 07:14:49;;;;;;;20.57;15.58;;;;;;;25.86;54.32;100244.47;1462567;89;21522;-66
2021/07/26 07:17:15;;;;;;;24.70;14.95;;;;;;;25.90;54.41;100248.88;1443082;89;22535;-67
2021/07/26 07:19:43;;;;;;;31.20;15.03;;;;;;;25.92;54.30;100255.66;1467410;89;21492;-69
2021/07/26 07:22:10;;;;;;;25.23;13.15;;;;;;;25.94;54.10;100253.52;1455106;89;21760;-67
2021/07/26 07:24:36;;;;;;;20.82;13.72;;;;;;;25.97;54.02;100257.61;1442688;89;21560;-68
2021/07/26 07:27:03;;;;;;;16.10;12.25;;;;;;;25.98;54.01;100254.66;1466995;89;21640;-70
2021/07/26 07:29:30;;;;;;;22.48;11.88;;;;;;;26.00;53.90;100255.20;1466928;89;21455;-70
2021/07/26 07:32:00;;;;;;;25.70;15.03;;;;;;;26.02;53.74;100255.78;1467807;89;21441;-70
2021/07/26 07:34:26;;;;;;;16.17;12.77;;;;;;;26.05;53.72;100251.20;1447216;89;22737;-67
2021/07/26 07:36:52;;;;;;;19.30;13.05;;;;;;;26.08;53.65;100247.98;1467463;89;21552;-66
2021/07/26 07:39:18;;;;;;;23.55;12.07;;;;;;;26.12;53.57;100255.06;1465194;89;22609;-67
2021/07/26 07:41:45;;;;;;;16.45;10.55;;;;;;;26.15;53.42;100256.45;1472310;88;21641;-70
2021/07/26 07:44:11;;;;;;;20.15;11.10;;;;;;;26.17;53.36;100257.03;1460476;89;22501;-70
2021/07/26 07:46:37;;;;;;;17.30;11.22;;;;;;;26.18;53.25;100258.66;1480153;89;21559;-67
2021/07/26 07:49:05;;;;;;;16.42;11.65;;;;;;;26.21;53.12;100252.72;1449668;89;21613;-72
2021/07/26 07:51:32;;;;;;;12.58;9.93;;;;;;;26.23;53.04;100254.64;1441285;89;21745;-72
2021/07/26 07:54:00;;;;;;;15.00;11.00;;;;;;;26.25;52.90;100257.93;1472721;90;22371;-68
2021/07/26 07:56:27;;;;;;;15.58;10.93;;;;;;;26.28;52.85;100257.42;1447553;90;21368;-70
2021/07/26 07:58:55;;;;;;;13.70;9.75;;;;;;;26.30;52.79;100260.70;1437244;90;21538;-69
2021/07/26 08:01:31;;;;;;;15.18;10.18;;;;;;;26.31;52.76;100260.43;1458085;90;21501;-69
2021/07/26 08:03:59;;;;;;;23.87;11.08;;;;;;;26.33;52.65;100263.72;1462702;90;22575;-70
2021/07/26 08:06:25;;;;;;;16.62;10.75;;;;;;;26.36;52.58;100259.67;1444415;90;21670;-67
2021/07/26 08:08:51;;;;;;;13.13;10.08;;;;;;;26.39;52.52;100265.95;1453063;90;21604;-68
2021/07/26 08:11:17;;;;;;;18.87;10.05;;;;;;;26.39;52.38;100267.30;1458723;90;21670;-73
2021/07/26 08:13:43;;;;;;;19.40;10.60;;;;;;;26.42;52.33;100266.78;1459213;90;21655;-67
2021/07/26 08:16:12;;;;;;;18.85;9.75;;;;;;;26.45;52.24;100266.81;1450712;90;22412;-69
2021/07/26 08:18:40;;;;;;;13.95;10.38;;;;;;;26.46;52.15;100259.76;1461472;90;21479;-68
2021/07/26 08:21:06;;;;;;;17.87;9.55;;;;;;;26.48;52.07;100256.26;1462860;90;21478;-70
2021/07/26 08:23:33;;;;;;;18.07;10.98;;;;;;;26.50;52.02;100269.07;1456649;90;22544;-72
2021/07/26 08:25:59;;;;;;;14.60;9.98;;;;;;;26.53;51.94;100267.74;1451150;90;21515;-70
2021/07/26 08:28:25;;;;;;;12.78;9.05;;;;;;;26.54;51.97;100261.23;1455660;90;21360;-69
2021/07/26 08:30:51;;;;;;;14.55;9.45;;;;;;;26.55;51.86;100265.56;1431415;90;21560;-70
2021/07/26 08:33:17;;;;;;;13.32;9.73;;;;;;;26.58;51.81;100273.19;1455042;90;21560;-71
2021/07/26 08:35:44;;;;;;;20.08;10.13;;;;;;;26.60;51.64;100272.41;1475276;90;21545;-69
2021/07/26 08:38:10;;;;;;;10.28;9.10;;;;;;;26.61;51.56;100275.39;1460683;90;21516;-71
2021/07/26 08:40:36;;;;;;;12.78;9.28;;;;;;;26.64;51.54;100279.48;1465107;90;21412;-74
2021/07/26 08:43:08;;;;;;;15.83;10.43;;;;;;;26.64;51.43;100278.94;1432569;88;22792;-71
2021/07/26 08:45:34;;;;;;;11.12;9.35;;;;;;;26.66;51.40;100276.80;1450418;90;21588;-71
2021/07/26 08:48:05;;;;;;;14.78;8.75;;;;;;;26.67;51.27;100277.61;1455862;90;21626;-69
2021/07/26 08:50:34;;;;;;;11.88;8.13;;;;;;;26.70;50.99;100281.17;1443153;88;22684;-70
2021/07/26 08:53:04;;;;;;;16.50;8.78;;;;;;;26.71;50.91;100274.68;1453447;89;21530;-72
2021/07/26 08:55:32;;;;;;;;;;;;;;;26.72;50.65;100274.95;1454832;89;21781;-69
2021/07/26 08:57:59;;;;;;;11.78;8.25;;;;;;;26.71;50.56;100278.20;1462956;89;20254;-70
2021/07/26 09:00:27;;;;;;;12.90;8.20;;;;;;;26.73;50.33;100276.06;1462882;89;21461;-72
2021/07/26 09:02:54;;;;;;;12.23;7.87;;;;;;;26.74;50.15;100275.52;1464337;89;21640;-67
2021/07/26 09:05:21;;;;;;;12.55;8.53;;;;;;;26.75;50.02;100275.79;1454489;89;21522;-70
2021/07/26 09:07:49;;;;;;;13.03;7.95;;;;;;;26.76;50.00;100277.45;1468496;89;22439;-70
2021/07/26 09:10:24;;;;;;;11.12;8.70;;;;;;;26.78;49.93;100283.41;1463133;89;22609;-70
2021/07/26 09:12:54;;;;;;;12.68;7.28;;;;;;;26.78;49.80;100287.48;1467711;89;21582;-70
2021/07/26 09:15:28;;;;;;;10.53;8.35;;;;;;;26.80;49.71;100284.53;1472242;89;21708;-71
2021/07/26 09:17:59;;;;;;;17.12;8.48;;;;;;;26.81;49.67;100291.59;1454519;89;21508;-69
2021/07/26 09:20:29;;;;;;;12.45;8.35;;;;;;;26.82;49.61;100293.24;1445944;91;21553;-68
2021/07/26 09:23:11;;;;;;;10.10;7.62;;;;;;;26.83;49.57;100289.44;1427498;91;22477;-74
2021/07/26 09:25:41;;;;;;;11.35;8.28;;;;;;;26.84;49.53;100292.42;1442892;91;21530;-69
2021/07/26 09:28:20;;;;;;;10.23;7.85;;;;;;;26.84;49.37;100293.23;1445525;91;21693;-70
2021/07/26 09:30:55;;;;;;;9.35;7.17;;;;;;;26.87;49.31;100298.15;1425822;91;21588;-68
2021/07/26 09:33:30;;;;;;;14.58;8.38;;;;;;;26.87;49.29;100292.72;1435988;91;21472;-70
2021/07/26 09:36:20;;;;;;;19.42;8.33;;;;;;;26.88;49.23;100284.87;1448519;91;22476;-67
2021/07/26 09:38:55;;;;;;;;;;;;;;;26.90;49.22;100289.52;1432724;91;21560;-70
2021/07/26 09:41:48;;;;;;;9.25;7.05;;;;;;;26.92;49.08;100300.91;1426629;89;20494;-68
2021/07/26 09:44:17;;;;;;;10.53;7.15;;;;;;;26.91;49.02;100299.28;1441036;91;21555;-66
2021/07/26 09:46:43;;;;;;;12.10;7.47;;;;;;;26.93;48.89;100286.28;1401791;92;21605;-71
2021/07/26 09:49:17;;;;;;;10.48;7.78;;;;;;;26.95;49.00;100292.79;1414939;92;21421;-69
2021/07/26 09:52:04;;;;;;;12.37;7.92;;;;;;;26.94;49.00;100290.63;1399832;92;21753;-72
2021/07/26 09:54:48;;;;;;;11.88;6.85;;;;;;;26.96;48.87;100296.62;1391975;92;21487;-73
2021/07/26 09:57:20;;;;;;;12.25;7.17;;;;;;;26.97;48.67;100298.79;1438847;91;21398;-67
2021/07/26 09:59:48;;;;;;;14.53;7.30;;;;;;;26.98;48.61;100286.84;1438379;91;22604;-73
2021/07/26 10:02:18;;;;;;;10.13;7.53;;;;;;;26.98;48.52;100291.73;1436536;91;22545;-69
2021/07/26 10:04:46;;;;;;;9.13;7.95;;;;;;;27.00;48.58;100290.12;1432057;90;21731;-71
2021/07/26 10:07:16;;;;;;;15.32;8.33;;;;;;;27.01;48.54;100288.48;1438458;90;21693;-71
2021/07/26 10:09:47;;;;;;;10.58;6.87;;;;;;;27.01;48.53;100283.60;1450011;90;22598;-71
2021/07/26 10:12:20;;;;;;;13.53;7.28;;;;;;;27.01;48.56;100278.98;1436785;90;21498;-71
2021/07/26 10:14:49;;;;;;;9.28;7.08;;;;;;;27.03;48.41;100284.72;1442944;90;22371;-71
2021/07/26 10:17:15;;;;;;;16.48;7.42;;;;;;;27.03;48.29;100283.36;1452468;90;21506;-71
2021/07/26 10:19:42;;;;;;;13.93;7.80;;;;;;;27.03;48.40;100276.56;1435485;90;21491;-72
2021/07/26 10:22:17;;;;;;;11.60;7.80;;;;;;;27.03;48.43;100275.20;1444585;90;21588;-72
2021/07/26 10:24:54;;;;;;;12.85;6.80;;;;;;;27.04;48.39;100272.77;1411569;90;21601;-72
2021/07/26 10:27:31;;;;;;;9.45;7.53;;;;;;;27.03;48.40;100273.85;1437528;90;21595;-71
2021/07/26 10:30:00;;;;;;;11.90;7.08;;;;;;;27.04;48.37;100271.41;1441072;90;21602;-72
2021/07/26 10:32:38;;;;;;;10.98;6.97;;;;;;;27.04;48.37;100273.57;1429877;90;22475;-71
2021/07/26 10:35:17;;;;;;;14.28;7.90;;;;;;;27.05;48.36;100270.34;1447341;90;21640;-72
2021/07/26 10:37:50;;;;;;;9.05;7.05;;;;;;;27.05;48.31;100271.70;1465703;90;21572;-72
2021/07/26 10:40:26;;;;;;;10.00;7.70;;;;;;;27.03;48.27;100269.23;1438724;90;21557;-71
2021/07/26 10:42:54;;;;;;;10.75;7.17;;;;;;;27.04;48.23;100284.44;1463325;90;22643;-69
2021/07/26 10:45:48;;;;;;;7.47;6.20;;;;;;;27.04;48.13;100283.08;1450327;90;21527;-68
2021/07/26 10:48:31;;;;;;;10.15;6.62;;;;;;;27.03;47.86;100285.53;1452794;90;21535;-71
2021/07/26 10:51:00;;;;;;;11.18;6.30;;;;;;;27.06;47.90;100277.41;1446050;90;21646;-73
2021/07/26 10:53:40;;;;;;;10.20;7.95;;;;;;;27.06;47.97;100278.77;1439401;90;21586;-73
2021/07/26 10:56:11;;;;;;;8.28;6.75;;;;;;;27.09;48.11;100280.95;1458784;90;21520;-73
2021/07/26 10:58:43;;;;;;;16.10;6.78;;;;;;;27.11;47.64;100266.58;1443589;90;21493;-70
2021/07/26 11:01:27;;;;;;;13.03;6.62;;;;;;;27.11;47.60;100282.33;1449181;90;21506;-68
2021/07/26 11:03:58;;;;;;;8.80;6.58;;;;;;;27.14;47.21;100276.92;1447725;90;21528;-72
2021/07/26 11:06:45;;;;;;;9.95;7.17;;;;;;;27.16;47.23;100274.77;1445372;90;21447;-69
2021/07/26 11:09:35;;;;;;;15.15;6.83;;;;;;;27.17;46.91;100280.50;1416390;90;21574;-71
2021/07/26 11:12:03;;;;;;;18.17;6.92;;;;;;;27.18;46.58;100274.80;1428321;90;21491;-70
2021/07/26 11:14:29;;;;;;;11.38;6.65;;;;;;;27.20;46.40;100271.28;1449385;90;22446;-72
2021/07/26 11:17:06;;;;;;;18.87;6.00;;;;;;;27.22;46.20;100258.81;1437943;90;21580;-71
2021/07/26 11:19:49;;;;;;;11.12;5.97;;;;;;;27.25;46.11;100253.37;1435751;90;22533;-70
2021/07/26 11:22:24;;;;;;;16.05;6.25;;;;;;;27.26;46.32;100258.55;1442128;90;21439;-68
2021/07/26 11:24:53;;;;;;;14.00;6.55;;;;;;;27.31;45.96;100260.49;1457976;90;21506;-71
2021/07/26 11:27:32;;;;;;;11.18;5.78;;;;;;;27.31;45.72;100255.88;1444588;90;21791;-69
2021/07/26 11:29:59;;;;;;;11.20;5.75;;;;;;;27.35;45.62;100263.77;1440329;90;21672;-75
2021/07/26 11:32:28;;;;;;;13.62;6.00;;;;;;;27.37;45.61;100252.10;1426604;90;22645;-71
2021/07/26 11:34:57;;;;;;;10.13;6.37;;;;;;;27.40;45.38;100261.63;1442875;90;21381;-75
2021/07/26 11:37:36;;;;;;;12.65;6.15;;;;;;;27.44;45.45;100262.73;1444464;90;21837;-71
2021/07/26 11:40:08;;;;;;;21.33;8.33;;;;;;;27.47;45.19;100269.53;1435683;90;21779;-71
2021/07/26 11:42:40;;;;;;;11.65;6.40;;;;;;;27.49;45.27;100264.12;1434975;90;22609;-71
2021/07/26 11:45:12;;;;;;;12.23;6.50;;;;;;;27.53;45.15;100269.84;1433140;90;21535;-68
2021/07/26 11:47:42;;;;;;;14.15;6.00;;;;;;;27.56;45.05;100266.59;1425600;90;21603;-72
2021/07/26 11:50:13;;;;;;;23.18;8.60;;;;;;;27.59;44.94;100264.70;1427621;90;21565;-71
2021/07/26 11:52:53;;;;;;;19.12;7.30;;;;;;;27.59;44.93;100266.06;1433484;90;21603;-66
2021/07/26 11:55:24;;;;;;;25.75;7.40;;;;;;;27.64;45.11;100263.38;1445678;90;22519;-64
2021/07/26 11:57:57;;;;;;;28.80;6.53;;;;;;;27.66;44.95;100265.30;1443565;90;21483;-67
2021/07/26 12:00:33;;;;;;;10.63;6.58;;;;;;;27.70;44.80;100254.16;1432397;90;21765;-66
2021/07/26 12:03:01;;;;;;;9.75;5.70;;;;;;;27.72;44.62;100255.27;1448461;90;21498;-68
2021/07/26 12:05:30;;;;;;;16.05;6.03;;;;;;;27.73;44.35;100257.70;1444941;90;21572;-68
2021/07/26 12:08:00;;;;;;;14.70;6.87;;;;;;;27.73;44.24;100260.97;1433337;90;21535;-68
2021/07/26 12:10:36;;;;;;;11.15;6.28;;;;;;;27.72;44.31;100259.34;1436290;90;21679;-65
2021/07/26 12:13:16;;;;;;;12.70;5.75;;;;;;;27.72;44.29;100254.72;1428342;90;21640;-66
2021/07/26 12:15:44;;;;;;;15.88;6.05;;;;;;;27.73;44.47;100250.91;1425399;90;21602;-67
2021/07/26 12:18:17;;;;;;;14.85;6.95;;;;;;;27.73;44.60;100252.81;1435619;90;22503;-66
2021/07/26 12:20:59;;;;;;;8.43;6.17;;;;;;;27.73;44.58;100252.27;1450622;90;21631;-69
2021/07/26 12:23:31;;;;;;;10.32;5.58;;;;;;;27.72;44.63;100253.36;1442840;90;22380;-68
2021/07/26 12:26:11;;;;;;;11.28;6.10;;;;;;;27.72;44.73;100252.00;1441785;90;21454;-68
2021/07/26 12:28:54;;;;;;;9.28;6.65;;;;;;;27.73;44.86;100250.91;1425046;90;21706;-68
2021/07/26 12:31:40;;;;;;;10.75;6.15;;;;;;;27.77;45.13;100251.22;1432806;90;21576;-67
2021/07/26 12:34:21;;;;;;;11.70;5.95;;;;;;;27.76;44.64;100255.80;1419556;92;21651;-67
2021/07/26 12:36:49;;;;;;;14.65;6.08;;;;;;;27.77;44.79;100251.22;1419436;92;21745;-71
2021/07/26 12:39:18;;;;;;;12.55;6.50;;;;;;;27.77;45.01;100249.30;1401759;92;21909;-69
2021/07/26 12:41:47;;;;;;;12.97;6.40;;;;;;;27.78;44.93;100257.73;1419665;91;21633;-67
2021/07/26 12:44:20;;;;;;;9.70;6.78;;;;;;;27.79;45.15;100253.95;1433074;90;21590;-66
2021/07/26 12:46:52;;;;;;;13.65;6.15;;;;;;;27.80;44.92;100245.27;1427266;91;21456;-67
2021/07/26 12:49:22;;;;;;;11.03;6.08;;;;;;;27.81;45.19;100242.81;1426876;91;21597;-67
2021/07/26 12:51:50;;;;;;;;;;;;;;;27.81;45.16;100235.47;1431167;91;21500;-65
2021/07/26 12:54:18;;;;;;;6.37;5.78;;;;;;;27.81;44.87;100239.55;1436261;91;20266;-63
2021/07/26 12:56:45;;;;;;;9.25;6.70;;;;;;;27.80;45.00;100240.64;1431409;91;21479;-67
2021/07/26 12:59:12;;;;;;;8.68;6.25;;;;;;;27.81;45.06;100231.39;1437932;91;21582;-67
2021/07/26 13:01:39;;;;;;;12.15;6.53;;;;;;;27.81;45.11;100236.02;1436653;91;21590;-68
2021/07/26 13:04:10;;;;;;;9.15;6.22;;;;;;;27.81;45.49;100230.03;1421621;91;21581;-69
2021/07/26 13:06:40;;;;;;;17.20;6.25;;;;;;;27.82;45.56;100228.13;1426062;91;21633;-70
2021/07/26 13:09:06;;;;;;;12.03;6.55;;;;;;;27.82;45.44;100222.17;1425562;91;21516;-68
2021/07/26 13:11:35;;;;;;;10.70;6.58;;;;;;;27.83;45.54;100221.08;1417055;91;21500;-65
2021/07/26 13:14:01;;;;;;;9.40;6.00;;;;;;;27.83;45.66;100212.11;1431921;91;21660;-66
2021/07/26 13:16:30;;;;;;;8.95;6.17;;;;;;;27.83;45.75;100210.20;1433401;91;21605;-65
2021/07/26 13:18:57;;;;;;;10.43;6.70;;;;;;;27.84;45.77;100210.46;1431605;91;21699;-64
2021/07/26 13:21:23;;;;;;;11.95;7.33;;;;;;;27.84;45.94;100207.75;1438339;91;21494;-67
2021/07/26 13:23:53;;;;;;;16.35;7.08;;;;;;;27.85;45.70;100210.76;1451134;91;21744;-68
2021/07/26 13:26:20;;;;;;;;;;;;;;;27.86;45.73;100215.10;1442744;91;21450;-70
2021/07/26 13:28:47;;;;;;;18.55;6.78;;;;;;;27.86;45.52;100200.70;1433970;91;20265;-66
2021/07/26 13:31:13;;;;;;;12.75;6.67;;;;;;;27.87;45.54;100204.48;1443449;91;21494;-66
2021/07/26 13:33:40;;;;;;;11.97;7.22;;;;;;;27.88;45.71;100212.12;1433081;91;21705;-63
2021/07/26 13:36:08;;;;;;;10.32;6.55;;;;;;;27.89;45.71;100211.84;1405069;91;21760;-64
2021/07/26 13:38:36;;;;;;;15.10;6.05;;;;;;;27.89;45.81;100206.41;1390795;94;21466;-64
2021/07/26 13:41:02;;;;;;;8.55;6.92;;;;;;;27.92;45.80;100204.25;1382197;94;21524;-69
2021/07/26 13:43:30;;;;;;;15.20;7.92;;;;;;;27.92;45.70;100204.25;1402130;94;21576;-68
2021/07/26 13:45:56;;;;;;;13.98;7.30;;;;;;;27.94;45.82;100202.05;1436141;92;22500;-67
2021/07/26 13:48:23;;;;;;;10.68;6.62;;;;;;;27.93;45.83;100205.32;1401992;94;21524;-67
2021/07/26 13:50:49;;;;;;;11.33;7.20;;;;;;;27.94;45.87;100200.70;1391900;94;22360;-69
2021/07/26 13:53:16;;;;;;;15.55;7.47;;;;;;;27.95;45.86;100205.06;1439135;91;21568;-74
2021/07/26 13:55:44;;;;;;;10.58;6.83;;;;;;;27.96;46.00;100208.05;1420046;92;21650;-66
2021/07/26 13:58:11;;;;;;;18.75;6.78;;;;;;;27.96;46.03;100200.70;1430769;90;21536;-65
2021/07/26 14:00:37;;;;;;;14.83;7.58;;;;;;;27.98;46.12;100198.54;1422378;91;21531;-67
2021/07/26 14:03:05;;;;;;;15.80;7.75;;;;;;;28.00;46.23;100198.28;1440741;91;21432;-65
